Time;durP1;ratioP1;P1;durP2;ratioP2;P2;SDS_P1;SDS_P2;PMS_P1;PMS_P2;Temp;Humidity;BMP_temperature;BMP_pressure;BME280_temperature;BME280_humidity;BME280_pressure;Samples;Min_cycle;Max_cycle;Signal;HPM_P1;HPM_P2
2023/07/24 00:01:04;;;;;;;6.20;4.50;;;;;;;16.60;100.00;99842.81;7393466;19;20422;-41
2023/07/24 00:03:34;;;;;;;6.20;4.00;;;;;;;16.55;100.00;99841.91;7373168;19;21026;-39
2023/07/24 00:06:04;;;;;;;8.43;4.17;;;;;;;16.53;100.00;99825.44;7394094;19;20418;-41
2023/07/24 00:08:33;;;;;;;6.83;4.17;;;;;;;16.50;100.00;99820.19;7369190;19;20803;-41
2023/07/24 00:11:05;;;;;;;5.33;4.00;;;;;;;16.51;100.00;99823.69;7395805;19;20421;-41
2023/07/24 00:13:37;;;;;;;8.43;3.87;;;;;;;16.50;100.00;99812.38;7373853;19;20515;-39
2023/07/24 00:16:10;;;;;;;7.80;3.60;;;;;;;16.52;100.00;99809.78;7369828;19;20480;-41
2023/07/24 00:18:40;;;;;;;7.83;4.00;;;;;;;16.51;100.00;99808.91;7392957;19;20763;-41
2023/07/24 00:21:13;;;;;;;8.70;3.97;;;;;;;16.49;100.00;99789.84;7369992;19;20415;-41
2023/07/24 00:23:42;;;;;;;6.10;3.90;;;;;;;16.49;100.00;99788.94;7393978;19;20411;-41
2023/07/24 00:26:15;;;;;;;7.80;4.77;;;;;;;16.47;100.00;99786.38;7369759;19;20407;-42
2023/07/24 00:28:47;;;;;;;8.03;4.37;;;;;;;16.44;100.00;99787.22;7395359;19;20411;-41
2023/07/24 00:31:17;;;;;;;5.00;3.63;;;;;;;16.44;100.00;99775.94;7364727;19;20419;-40
2023/07/24 00:33:46;;;;;;;5.10;3.90;;;;;;;16.44;100.00;99776.81;7394023;19;20754;-41
2023/07/24 00:36:16;;;;;;;4.83;3.87;;;;;;;16.44;100.00;99773.31;7371353;19;20499;-40
2023/07/24 00:38:45;;;;;;;6.13;3.70;;;;;;;16.43;100.00;99769.00;7394540;19;20498;-41
2023/07/24 00:41:15;;;;;;;7.00;4.03;;;;;;;16.41;100.00;99766.38;7370663;19;20403;-40
2023/07/24 00:43:47;;;;;;;5.70;3.93;;;;;;;16.37;100.00;99769.88;7392822;19;20404;-41
2023/07/24 00:46:17;;;;;;;5.27;4.00;;;;;;;16.37;100.00;99769.88;7371100;19;20956;-40
2023/07/24 00:48:47;;;;;;;5.20;4.10;;;;;;;16.35;100.00;99765.50;7394590;19;20428;-40
2023/07/24 00:51:16;;;;;;;9.93;4.30;;;;;;;16.30;100.00;99768.09;7370052;19;20419;-40
2023/07/24 00:53:47;;;;;;;6.83;4.33;;;;;;;16.28;100.00;99752.50;7393880;19;20825;-40
2023/07/24 00:56:17;;;;;;;6.00;3.67;;;;;;;16.29;100.00;99756.81;7371719;19;20413;-40
2023/07/24 00:58:50;;;;;;;4.60;3.93;;;;;;;16.28;100.00;99752.50;7394526;19;20505;-40
2023/07/24 01:01:20;;;;;;;6.47;4.10;;;;;;;16.32;100.00;99751.59;7365730;19;20948;-36
2023/07/24 01:03:50;;;;;;;5.80;4.00;;;;;;;16.34;100.00;99756.81;7396815;19;20779;-38
2023/07/24 01:06:19;;;;;;;6.03;4.47;;;;;;;16.32;100.00;99753.34;7370716;19;20818;-39
2023/07/24 01:08:49;;;;;;;5.80;3.80;;;;;;;16.31;100.00;99747.28;7396913;19;20410;-37
2023/07/24 01:11:22;;;;;;;8.33;4.97;;;;;;;16.37;100.00;99748.16;7370140;19;20475;-39
2023/07/24 01:14:02;;;;;;;6.40;4.27;;;;;;;16.40;100.00;99754.22;7394694;19;21282;-42
2023/07/24 01:16:35;;;;;;;8.10;4.60;;;;;;;16.39;100.00;99751.63;7368458;19;20470;-41
2023/07/24 01:19:07;;;;;;;6.90;4.60;;;;;;;16.36;100.00;99756.84;7393595;19;20399;-38
2023/07/24 01:21:45;;;;;;;6.03;4.40;;;;;;;16.36;100.00;99749.88;7368482;19;20770;-43
2023/07/24 01:24:22;;;;;;;8.47;5.30;;;;;;;16.39;100.00;99754.22;7393427;19;20414;-41
2023/07/24 01:26:54;;;;;;;6.93;5.53;;;;;;;16.43;100.00;99753.38;7371266;19;20827;-39
2023/07/24 01:29:24;;;;;;;9.50;5.40;;;;;;;16.43;100.00;99755.97;7395497;19;20428;-40
2023/07/24 01:31:54;;;;;;;7.30;5.10;;;;;;;16.44;100.00;99755.09;7367319;19;20818;-38
2023/07/24 01:34:24;;;;;;;12.10;5.77;;;;;;;16.44;100.00;99760.31;7393054;19;21064;-41
2023/07/24 01:36:53;;;;;;;8.50;5.37;;;;;;;16.46;100.00;99761.22;7366443;19;20439;-41
2023/07/24 01:39:24;;;;;;;8.33;4.90;;;;;;;16.47;100.00;99760.34;7392146;19;20471;-43
2023/07/24 01:41:56;;;;;;;8.10;5.37;;;;;;;16.46;100.00;99756.00;7368843;19;20536;-44
2023/07/24 01:44:26;;;;;;;6.60;4.90;;;;;;;16.47;100.00;99752.53;7393585;19;20404;-41
2023/07/24 01:46:56;;;;;;;8.80;4.87;;;;;;;16.49;100.00;99752.50;7369380;19;20528;-42
2023/07/24 01:49:25;;;;;;;5.67;4.17;;;;;;;16.49;100.00;99756.00;7395427;19;20411;-41
2023/07/24 01:51:55;;;;;;;9.60;5.10;;;;;;;16.50;100.00;99755.13;7364027;19;20429;-41
2023/07/24 01:54:24;;;;;;;10.13;5.07;;;;;;;16.49;100.00;99753.38;7393360;19;20408;-42
2023/07/24 01:56:57;;;;;;;7.27;5.57;;;;;;;16.47;100.00;99760.34;7370439;19;21148;-41
2023/07/24 01:59:26;;;;;;;6.53;4.93;;;;;;;16.46;100.00;99763.81;7393365;19;20407;-42
2023/07/24 02:01:56;;;;;;;8.17;5.23;;;;;;;16.44;100.00;99766.41;7363743;19;20419;-42
2023/07/24 02:04:25;;;;;;;5.93;5.10;;;;;;;16.44;100.00;99755.09;7393718;19;20406;-40
2023/07/24 02:06:55;;;;;;;7.20;5.10;;;;;;;16.44;100.00;99761.19;7368632;19;20845;-41
2023/07/24 02:09:25;;;;;;;7.90;5.03;;;;;;;16.44;100.00;99756.00;7392921;19;20490;-40
2023/07/24 02:11:57;;;;;;;5.80;4.20;;;;;;;16.44;100.00;99753.38;7368405;19;20506;-39
2023/07/24 02:14:26;;;;;;;6.43;4.70;;;;;;;16.43;100.00;99750.78;7392895;19;21181;-42
2023/07/24 02:16:56;;;;;;;5.50;4.40;;;;;;;16.42;100.00;99751.66;7368893;19;20522;-42
2023/07/24 02:19:26;;;;;;;7.03;5.60;;;;;;;16.41;100.00;99747.31;7393212;19;20483;-41
2023/07/24 02:21:55;;;;;;;7.67;4.97;;;;;;;16.43;100.00;99745.56;7368737;19;20423;-41
2023/07/24 02:24:25;;;;;;;7.63;4.70;;;;;;;16.41;100.00;99747.31;7392593;19;20784;-41
2023/07/24 02:26:57;;;;;;;7.93;5.23;;;;;;;16.40;100.00;99748.19;7368641;19;20451;-41
2023/07/24 02:29:26;;;;;;;8.13;5.17;;;;;;;16.38;100.00;99752.50;7392523;19;20396;-42
2023/07/24 02:31:57;;;;;;;11.13;5.73;;;;;;;16.35;100.00;99742.94;7364587;19;20423;-41
2023/07/24 02:34:28;;;;;;;6.33;5.20;;;;;;;16.33;100.00;99745.56;7392819;19;20422;-41
2023/07/24 02:36:58;;;;;;;7.67;5.00;;;;;;;16.32;100.00;99743.81;7368466;19;20522;-40
2023/07/24 02:39:27;;;;;;;7.67;5.67;;;;;;;16.29;100.00;99746.41;7393853;19;20852;-42
2023/07/24 02:41:59;;;;;;;8.83;5.87;;;;;;;16.26;100.00;99748.16;7367472;19;20506;-41
2023/07/24 02:44:29;;;;;;;8.33;5.90;;;;;;;16.28;100.00;99743.78;7392418;19;20808;-39
2023/07/24 02:46:58;;;;;;;11.60;6.87;;;;;;;16.23;100.00;99741.19;7368309;19;20514;-39
2023/07/24 02:49:28;;;;;;;9.93;6.90;;;;;;;16.25;100.00;99744.66;7392791;19;20411;-40
2023/07/24 02:51:58;;;;;;;11.50;6.53;;;;;;;16.28;100.00;99744.69;7368123;19;20484;-40
2023/07/24 02:54:28;;;;;;;11.90;7.17;;;;;;;16.26;100.00;99737.72;7392348;19;20918;-41
2023/07/24 02:57:00;;;;;;;12.70;7.40;;;;;;;16.23;100.00;99742.91;7367396;19;20826;-40
2023/07/24 02:59:31;;;;;;;11.37;7.00;;;;;;;16.17;100.00;99746.38;7391455;19;20490;-41
2023/07/24 03:02:01;;;;;;;11.03;8.50;;;;;;;16.16;100.00;99749.84;7362196;19;20430;-40
2023/07/24 03:04:31;;;;;;;8.97;7.40;;;;;;;16.16;100.00;99745.50;7392672;19;20479;-42
2023/07/24 03:07:00;;;;;;;10.90;8.30;;;;;;;16.17;100.00;99742.06;7363682;19;20451;-40
2023/07/24 03:09:30;;;;;;;14.03;8.50;;;;;;;16.17;100.00;99746.38;7391662;19;20415;-42
2023/07/24 03:12:02;;;;;;;11.67;7.40;;;;;;;16.19;100.00;99752.44;7360694;19;20515;-41
2023/07/24 03:14:32;;;;;;;15.40;8.17;;;;;;;16.18;100.00;99753.31;7391361;19;20943;-42
2023/07/24 03:17:01;;;;;;;14.50;7.33;;;;;;;16.18;100.00;99753.31;7365337;19;20443;-41
2023/07/24 03:19:32;;;;;;;11.10;8.00;;;;;;;16.19;100.00;99755.94;7391587;19;20403;-41
2023/07/24 03:22:01;;;;;;;10.27;7.80;;;;;;;16.19;100.00;99757.66;7364550;19;20885;-41
2023/07/24 03:24:31;;;;;;;12.40;7.40;;;;;;;16.18;100.00;99750.72;7391285;19;20415;-40
2023/07/24 03:27:03;;;;;;;9.27;6.93;;;;;;;16.20;100.00;99757.66;7364710;19;20454;-40
2023/07/24 03:29:32;;;;;;;9.30;6.47;;;;;;;16.22;100.00;99755.06;7390195;19;20758;-37
2023/07/24 03:32:02;;;;;;;10.80;7.30;;;;;;;16.18;100.00;99755.91;7361738;19;20453;-41
2023/07/24 03:34:32;;;;;;;15.73;7.20;;;;;;;16.22;100.00;99775.91;7390908;19;20411;-42
2023/07/24 03:37:01;;;;;;;11.47;7.30;;;;;;;16.28;100.00;99768.09;7365912;19;20455;-41
2023/07/24 03:39:31;;;;;;;11.43;7.67;;;;;;;16.31;100.00;99770.69;7391063;19;20430;-43
2023/07/24 03:42:04;;;;;;;12.70;7.43;;;;;;;16.32;100.00;99772.44;7365060;19;20471;-42
2023/07/24 03:44:34;;;;;;;12.07;7.60;;;;;;;16.38;100.00;99775.91;7390539;19;20403;-39
2023/07/24 03:47:03;;;;;;;9.80;6.93;;;;;;;16.39;100.00;99773.31;7364376;19;20451;-42
2023/07/24 03:49:33;;;;;;;7.33;5.57;;;;;;;16.40;100.00;99790.69;7390829;19;20412;-42
2023/07/24 03:52:02;;;;;;;11.10;6.80;;;;;;;16.41;100.00;99787.19;7364394;19;20419;-40
2023/07/24 03:54:32;;;;;;;10.27;6.60;;;;;;;16.45;100.00;99788.97;7390165;19;20412;-41
2023/07/24 03:57:05;;;;;;;8.80;6.40;;;;;;;16.49;100.00;99800.25;7363767;19;20526;-41
2023/07/24 03:59:34;;;;;;;9.83;6.50;;;;;;;16.50;100.00;99814.16;7390081;19;20767;-37
2023/07/24 04:02:04;;;;;;;7.30;5.80;;;;;;;16.50;100.00;99811.53;7361748;19;20663;-39
2023/07/24 04:04:37;;;;;;;7.33;5.57;;;;;;;16.47;100.00;99817.59;7390685;19;20395;-41
2023/07/24 04:07:07;;;;;;;8.33;6.00;;;;;;;16.48;100.00;99827.16;7363125;19;20464;-42
2023/07/24 04:09:37;;;;;;;10.23;7.13;;;;;;;16.50;100.00;99832.38;7388877;19;20412;-40
2023/07/24 04:12:10;;;;;;;9.80;6.50;;;;;;;16.50;100.00;99838.41;7364013;19;20423;-42
2023/07/24 04:14:39;;;;;;;11.40;5.30;;;;;;;16.49;100.00;99834.09;7389370;19;20411;-42
2023/07/24 04:17:09;;;;;;;9.03;6.30;;;;;;;16.47;100.00;99841.88;7363667;19;20906;-42
2023/07/24 04:19:39;;;;;;;8.90;6.00;;;;;;;16.43;100.00;99839.28;7394053;19;20411;-42
2023/07/24 04:22:08;;;;;;;8.23;5.67;;;;;;;16.43;100.00;99836.66;7370556;19;20842;-41
2023/07/24 04:24:38;;;;;;;9.23;5.80;;;;;;;16.40;100.00;99841.88;7396644;19;20419;-42
2023/07/24 04:27:10;;;;;;;8.13;5.60;;;;;;;16.40;100.00;99839.28;7369184;19;20867;-40
2023/07/24 04:29:40;;;;;;;7.23;5.53;;;;;;;16.36;100.00;99829.72;7396342;19;20845;-38
2023/07/24 04:32:10;;;;;;;7.80;4.70;;;;;;;16.35;100.00;99828.84;7368868;19;20504;-42
2023/07/24 04:34:40;;;;;;;9.50;6.23;;;;;;;16.37;100.00;99819.31;7396274;19;20407;-42
2023/07/24 04:37:09;;;;;;;6.37;4.77;;;;;;;16.37;100.00;99821.03;7370076;19;20451;-40
2023/07/24 04:39:41;;;;;;;8.23;5.93;;;;;;;16.42;100.00;99824.53;7396088;19;20425;-40
2023/07/24 04:42:13;;;;;;;8.63;6.50;;;;;;;16.38;100.00;99822.78;7369896;19;20422;-40
2023/07/24 04:44:42;;;;;;;7.63;5.33;;;;;;;16.38;100.00;99827.97;7396150;19;20404;-41
2023/07/24 04:47:12;;;;;;;9.80;6.23;;;;;;;16.36;100.00;99827.13;7370975;19;20918;-41
2023/07/24 04:49:41;;;;;;;8.90;6.03;;;;;;;16.39;100.00;99824.50;7395790;19;20483;-42
2023/07/24 04:52:11;;;;;;;9.13;7.00;;;;;;;16.39;100.00;99819.28;7369579;19;20435;-42
2023/07/24 04:54:40;;;;;;;9.30;6.10;;;;;;;16.41;100.00;99812.38;7395534;19;20846;-41
2023/07/24 04:57:13;;;;;;;9.30;5.70;;;;;;;16.43;100.00;99815.84;7365195;19;21004;-38
2023/07/24 04:59:42;;;;;;;9.30;5.57;;;;;;;16.43;100.00;99818.44;7394673;19;20404;-42
2023/07/24 05:02:13;;;;;;;6.73;5.23;;;;;;;16.46;100.00;99814.13;7364933;19;20427;-41
2023/07/24 05:04:42;;;;;;;10.47;6.67;;;;;;;16.46;100.00;99805.47;7395372;19;20436;-40
2023/07/24 05:07:12;;;;;;;10.20;6.47;;;;;;;16.46;100.00;99816.72;7369300;19;20452;-42
2023/07/24 05:09:41;;;;;;;9.33;6.00;;;;;;;16.47;100.00;99820.22;7393728;19;20411;-41
2023/07/24 05:12:14;;;;;;;8.67;5.83;;;;;;;16.44;100.00;99818.47;7369863;19;20443;-39
2023/07/24 05:14:43;;;;;;;7.17;5.87;;;;;;;16.49;100.00;99826.28;7395010;19;20407;-42
2023/07/24 05:17:13;;;;;;;11.60;6.37;;;;;;;16.51;100.00;99819.31;7367843;19;20934;-42
2023/07/24 05:19:42;;;;;;;12.23;6.73;;;;;;;16.54;100.00;99819.34;7396762;19;20409;-42
2023/07/24 05:22:12;;;;;;;6.90;5.60;;;;;;;16.62;100.00;99805.47;7368354;19;20511;-41
2023/07/24 05:24:42;;;;;;;10.57;5.80;;;;;;;16.69;100.00;99809.81;7395069;19;20411;-39
2023/07/24 05:27:15;;;;;;;9.87;6.27;;;;;;;16.73;100.00;99808.97;7365843;19;20471;-41
2023/07/24 05:29:45;;;;;;;9.30;6.80;;;;;;;16.85;100.00;99808.09;7394167;19;20416;-41
2023/07/24 05:32:15;;;;;;;9.93;6.20;;;;;;;16.83;100.00;99826.31;7364337;19;20415;-41
2023/07/24 05:34:44;;;;;;;8.40;5.80;;;;;;;16.87;100.00;99838.50;7393456;19;20408;-41
2023/07/24 05:37:14;;;;;;;10.57;6.47;;;;;;;16.93;100.00;99836.78;7368092;19;20466;-41
2023/07/24 05:39:44;;;;;;;8.87;5.57;;;;;;;17.02;100.00;99849.81;7396553;19;20483;-40
2023/07/24 05:42:16;;;;;;;9.47;5.90;;;;;;;17.03;100.00;99848.09;7368997;19;20425;-41
2023/07/24 05:44:46;;;;;;;9.20;5.60;;;;;;;16.98;100.00;99850.69;7394113;19;20479;-40
2023/07/24 05:47:15;;;;;;;7.23;5.47;;;;;;;17.05;100.00;99852.44;7368922;19;20526;-40
2023/07/24 05:49:45;;;;;;;11.10;6.50;;;;;;;17.03;100.00;99864.63;7395074;19;20412;-42
2023/07/24 05:52:14;;;;;;;11.90;7.40;;;;;;;16.96;100.00;99865.41;7367522;19;20448;-41
2023/07/24 05:54:44;;;;;;;10.70;6.50;;;;;;;17.03;100.00;99869.81;7394196;19;20423;-39
2023/07/24 05:57:16;;;;;;;11.50;6.50;;;;;;;17.01;100.00;99876.72;7366924;19;21003;-41
2023/07/24 05:59:46;;;;;;;10.23;6.27;;;;;;;17.00;100.00;99891.50;7394110;19;20850;-41
2023/07/24 06:02:15;;;;;;;9.17;6.47;;;;;;;17.02;100.00;99883.69;7363288;19;20430;-42
2023/07/24 06:04:45;;;;;;;10.93;6.43;;;;;;;17.02;100.00;99888.91;7394036;19;20415;-40
2023/07/24 06:07:15;;;;;;;12.17;7.73;;;;;;;17.08;100.00;99896.72;7368508;19;20477;-40
2023/07/24 06:09:44;;;;;;;8.17;5.87;;;;;;;17.07;100.00;99901.97;7391384;19;20403;-39
2023/07/24 06:12:16;;;;;;;9.10;6.23;;;;;;;17.19;100.00;99896.75;7368889;19;20592;-39
2023/07/24 06:14:46;;;;;;;9.37;6.10;;;;;;;17.27;100.00;99910.66;7393227;19;20412;-40
2023/07/24 06:17:15;;;;;;;8.80;5.40;;;;;;;17.39;100.00;99909.78;7367069;19;20466;-41
2023/07/24 06:19:45;;;;;;;7.30;5.07;;;;;;;17.62;100.00;99915.88;7392303;19;20407;-40
2023/07/24 06:22:15;;;;;;;12.23;8.23;;;;;;;17.68;100.00;99919.34;7365844;19;20426;-41
2023/07/24 06:24:44;;;;;;;9.60;6.47;;;;;;;17.74;100.00;99935.88;7393247;19;20406;-42
2023/07/24 06:27:16;;;;;;;9.83;6.67;;;;;;;17.67;100.00;99959.34;7366485;19;21011;-40
2023/07/24 06:29:46;;;;;;;8.80;6.30;;;;;;;17.64;100.00;99974.97;7392972;19;20474;-42
2023/07/24 06:32:19;;;;;;;10.03;7.03;;;;;;;17.74;100.00;99988.03;7362820;19;20423;-42
2023/07/24 06:34:49;;;;;;;8.83;6.60;;;;;;;17.91;100.00;99991.53;7392384;19;21256;-42
2023/07/24 06:37:18;;;;;;;11.63;7.50;;;;;;;17.87;100.00;99999.31;7366147;19;20998;-41
2023/07/24 06:39:51;;;;;;;10.50;7.03;;;;;;;17.74;100.00;100025.41;7392161;19;20403;-41
2023/07/24 06:42:23;;;;;;;9.07;6.80;;;;;;;17.85;100.00;100035.88;7361584;19;20900;-41
2023/07/24 06:44:53;;;;;;;11.20;7.20;;;;;;;17.90;100.00;100041.94;7389654;19;20411;-42
2023/07/24 06:47:22;;;;;;;9.53;6.83;;;;;;;18.14;100.00;100048.06;7362140;19;20446;-41
2023/07/24 06:49:52;;;;;;;9.60;6.60;;;;;;;18.05;100.00;100050.66;7389852;19;20422;-40
2023/07/24 06:52:22;;;;;;;8.60;6.53;;;;;;;18.07;100.00;100065.47;7361856;19;20498;-41
2023/07/24 06:54:51;;;;;;;10.63;7.03;;;;;;;18.14;100.00;100055.03;7389516;19;20486;-42
2023/07/24 06:57:23;;;;;;;8.70;6.47;;;;;;;18.13;100.00;100059.38;7361369;19;20542;-41
2023/07/24 06:59:53;;;;;;;9.07;6.50;;;;;;;18.14;100.00;100058.50;7388955;19;20407;-41
2023/07/24 07:02:24;;;;;;;8.40;6.40;;;;;;;18.15;100.00;100056.78;7358178;19;20427;-42
2023/07/24 07:04:53;;;;;;;13.13;7.40;;;;;;;18.17;100.00;100052.41;7389346;19;20411;-42
2023/07/24 07:07:23;;;;;;;8.97;6.73;;;;;;;18.10;100.00;100054.16;7362583;19;20451;-42
2023/07/24 07:09:52;;;;;;;8.50;5.80;;;;;;;17.97;100.00;100071.53;7387721;19;20408;-41
2023/07/24 07:12:25;;;;;;;9.70;7.20;;;;;;;17.94;100.00;100056.75;7359180;19;20443;-41
2023/07/24 07:14:54;;;;;;;11.60;7.47;;;;;;;17.85;100.00;100053.25;7391153;19;20419;-42
2023/07/24 07:17:24;;;;;;;11.80;8.33;;;;;;;17.80;100.00;100051.50;7366437;19;20451;-42
2023/07/24 07:19:56;;;;;;;8.67;6.47;;;;;;;17.83;100.00;100039.34;7390276;19;20415;-42
2023/07/24 07:22:25;;;;;;;13.90;6.67;;;;;;;17.75;100.00;100026.28;7389898;19;20445;-41
2023/07/24 07:24:55;;;;;;;12.77;7.00;;;;;;;17.73;100.00;100028.03;7391191;19;20399;-41
2023/07/24 07:27:27;;;;;;;9.03;6.20;;;;;;;17.73;100.00;100025.44;7389602;19;20431;-41
2023/07/24 07:29:57;;;;;;;8.43;6.83;;;;;;;17.71;100.00;100014.09;7363116;19;20426;-41
2023/07/24 07:32:26;;;;;;;8.67;6.70;;;;;;;17.75;100.00;100008.88;7390341;19;20930;-42
2023/07/24 07:34:56;;;;;;;11.73;8.00;;;;;;;17.84;100.00;100001.94;7364415;19;20851;-41
2023/07/24 07:37:26;;;;;;;9.17;6.83;;;;;;;17.88;100.00;99999.34;7390766;19;20523;-42
2023/07/24 07:39:56;;;;;;;11.43;7.90;;;;;;;17.81;100.00;100006.28;7364562;19;21073;-42
2023/07/24 07:42:28;;;;;;;10.37;6.60;;;;;;;17.86;100.00;100013.25;7385038;19;20432;-41
2023/07/24 07:44:57;;;;;;;9.53;6.70;;;;;;;17.86;100.00;100014.13;7363599;19;20463;-42
2023/07/24 07:47:27;;;;;;;11.40;7.03;;;;;;;17.86;100.00;100019.34;7390458;19;20443;-41
2023/07/24 07:49:57;;;;;;;10.03;6.40;;;;;;;17.90;100.00;100031.50;7364296;19;20798;-42
2023/07/24 07:52:26;;;;;;;7.93;6.20;;;;;;;17.83;100.00;100040.19;7391069;19;20415;-42
2023/07/24 07:54:56;;;;;;;8.80;6.93;;;;;;;17.89;100.00;100050.66;7372003;19;20442;-41
2023/07/24 07:57:31;;;;;;;12.93;6.73;;;;;;;18.02;100.00;100050.66;7397476;19;20434;-40
2023/07/24 08:00:00;;;;;;;8.60;6.47;;;;;;;18.04;100.00;100043.66;7370687;19;20494;-41
2023/07/24 08:02:30;;;;;;;10.73;7.00;;;;;;;18.08;100.00;100037.63;7396312;19;20823;-42
2023/07/24 08:04:59;;;;;;;9.00;6.53;;;;;;;18.20;100.00;100032.41;7370806;19;20460;-41
2023/07/24 08:07:39;;;;;;;11.40;6.93;;;;;;;18.33;100.00;100034.97;7397189;19;20447;-43
2023/07/24 08:10:10;;;;;;;9.67;6.87;;;;;;;18.20;100.00;100040.22;7369534;19;20431;-42
2023/07/24 08:12:42;;;;;;;9.87;6.83;;;;;;;18.17;100.00;100042.84;7396871;19;20456;-42
2023/07/24 08:15:12;;;;;;;10.47;7.13;;;;;;;18.19;100.00;100051.53;7369984;19;20423;-42
2023/07/24 08:17:42;;;;;;;10.13;7.00;;;;;;;18.01;100.00;100064.56;7397022;19;20860;-41
2023/07/24 08:20:13;;;;;;;15.10;7.60;;;;;;;18.04;100.00;100056.72;7367114;19;20439;-42
2023/07/24 08:25:41;;;;;;;10.03;7.10;;;;;;;18.08;100.00;100033.28;7401141;19;20466;-38
2023/07/24 08:28:09;;;;;;;8.60;6.93;;;;;;;18.00;100.00;100042.81;7421223;19;20503;-40
2023/07/24 08:30:37;;;;;;;11.77;6.90;;;;;;;17.90;100.00;100052.38;7426462;19;20418;-42
2023/07/24 08:33:06;;;;;;;9.33;7.33;;;;;;;17.94;100.00;100043.69;7393670;19;21005;-40
2023/07/24 08:35:34;;;;;;;12.00;7.30;;;;;;;18.01;100.00;100038.47;7424828;19;20383;-39
2023/07/24 08:38:02;;;;;;;11.10;6.90;;;;;;;18.08;100.00;100040.22;7395617;19;20470;-40
2023/07/24 08:40:31;;;;;;;9.30;6.73;;;;;;;18.04;100.00;100028.00;7422205;19;20417;-43
2023/07/24 08:43:02;;;;;;;9.77;6.67;;;;;;;18.07;100.00;100034.16;7233967;19;3117529;-40
2023/07/24 08:45:32;;;;;;;11.30;8.17;;;;;;;18.02;100.00;100053.25;7423364;19;20429;-44
2023/07/24 08:48:02;;;;;;;12.43;7.17;;;;;;;18.10;100.00;100038.47;7401028;19;20478;-41
2023/07/24 08:50:32;;;;;;;8.73;6.40;;;;;;;18.02;100.00;100035.88;7425674;19;20399;-40
2023/07/24 08:53:02;;;;;;;10.67;7.47;;;;;;;18.03;100.00;100052.38;7399617;19;20442;-39
2023/07/24 08:55:32;;;;;;;9.90;6.73;;;;;;;18.07;100.00;100054.16;7425550;19;20406;-43
2023/07/24 08:58:06;;;;;;;10.33;6.53;;;;;;;18.13;100.00;100056.78;7400006;19;20423;-43
2023/07/24 09:00:36;;;;;;;8.40;6.53;;;;;;;18.14;100.00;100050.66;7429949;19;20836;-43
2023/07/24 09:03:06;;;;;;;9.20;6.90;;;;;;;18.28;100.00;100047.16;7397710;19;20419;-47
2023/07/24 09:05:35;;;;;;;11.27;8.10;;;;;;;18.26;100.00;100065.47;7426225;19;20482;-39
2023/07/24 09:08:05;;;;;;;10.40;6.87;;;;;;;18.28;100.00;100065.44;7402293;19;20419;-39
2023/07/24 09:10:35;;;;;;;10.37;6.77;;;;;;;18.43;100.00;100078.50;7426202;19;20414;-40
2023/07/24 09:13:07;;;;;;;11.00;5.87;;;;;;;18.73;100.00;100071.44;7407684;19;20411;-39
2023/07/24 09:15:43;;;;;;;9.20;6.53;;;;;;;18.83;100.00;100080.16;7424579;19;20853;-42
2023/07/24 09:18:13;;;;;;;9.97;6.40;;;;;;;18.87;100.00;100094.06;7394879;19;20382;-40
2023/07/24 09:20:44;;;;;;;10.00;6.60;;;;;;;18.94;100.00;100095.78;7419678;19;20387;-40
2023/07/24 09:23:15;;;;;;;10.30;6.83;;;;;;;19.05;100.00;100094.91;7401331;19;20495;-42
2023/07/24 09:25:50;;;;;;;8.03;5.60;;;;;;;19.34;100.00;100096.53;7419894;19;20375;-40
2023/07/24 09:28:22;;;;;;;9.70;6.27;;;;;;;19.43;100.00;100114.78;7394855;19;20383;-41
2023/07/24 09:30:56;;;;;;;9.00;5.70;;;;;;;19.87;100.00;100123.25;7420787;19;20386;-40
2023/07/24 09:33:36;;;;;;;10.07;6.10;;;;;;;19.80;100.00;100143.34;7396625;19;21048;-45
2023/07/24 09:36:07;;;;;;;6.93;5.30;;;;;;;19.72;100.00;100147.75;7404127;19;20740;-38
2023/07/24 09:38:37;;;;;;;14.27;6.13;;;;;;;19.69;100.00;100169.59;7369233;19;20907;-40
2023/07/24 09:41:07;;;;;;;7.23;5.40;;;;;;;19.59;100.00;100181.00;7394065;19;20383;-43
2023/07/24 09:43:39;;;;;;;7.60;5.20;;;;;;;19.19;100.00;100179.41;7363242;19;20411;-39
2023/07/24 09:46:10;;;;;;;8.53;6.03;;;;;;;19.10;100.00;100172.44;7392408;19;20406;-46
2023/07/24 09:48:40;;;;;;;9.80;6.67;;;;;;;19.20;100.00;100151.50;7371229;19;20494;-40
2023/07/24 09:51:33;;;;;;;7.67;5.50;;;;;;;19.26;100.00;100144.50;7395197;19;20892;-41
2023/07/24 09:54:09;;;;;;;8.30;5.80;;;;;;;19.18;100.00;100133.22;7366376;19;20498;-38
2023/07/24 09:56:39;;;;;;;9.33;6.03;;;;;;;19.30;100.00;100108.75;7392690;19;20384;-42
2023/07/24 09:59:25;;;;;;;8.27;5.90;;;;;;;19.68;100.00;100096.31;7368847;19;20476;-41
2023/07/24 10:01:55;;;;;;;9.30;6.20;;;;;;;19.42;100.00;100123.50;7393303;19;20380;-42
2023/07/24 10:04:26;;;;;;;7.83;5.13;;;;;;;19.47;100.00;100137.44;7363909;19;20427;-40
2023/07/24 10:06:56;;;;;;;7.87;5.53;;;;;;;19.60;100.00;100127.78;7395204;19;20402;-46
2023/07/24 10:09:26;;;;;;;8.80;5.53;;;;;;;19.72;100.00;100134.69;7368212;19;20387;-41
2023/07/24 10:11:59;;;;;;;8.73;5.50;;;;;;;19.82;100.00;100138.09;7392900;19;20383;-43
2023/07/24 10:14:33;;;;;;;6.73;4.83;;;;;;;19.86;100.00;100120.63;7362381;19;21304;-43
2023/07/24 10:17:03;;;;;;;7.93;4.80;;;;;;;19.82;100.00;100131.13;7391302;19;20407;-44
2023/07/24 10:19:39;;;;;;;6.93;4.87;;;;;;;19.72;100.00;100155.63;7366132;19;20419;-42
2023/07/24 10:22:09;;;;;;;7.00;5.10;;;;;;;19.55;100.00;100148.72;7395764;19;20403;-42
2023/07/24 10:24:38;;;;;;;9.00;6.37;;;;;;;19.43;100.00;100148.78;7365186;19;20467;-41
2023/07/24 10:27:11;;;;;;;8.30;5.20;;;;;;;19.47;100.00;100142.66;7396447;19;20422;-42
2023/07/24 10:29:47;;;;;;;10.93;7.50;;;;;;;19.53;100.00;100131.31;7372403;19;20991;-39
2023/07/24 10:32:20;;;;;;;11.03;7.10;;;;;;;19.61;100.00;100129.50;7395772;19;20412;-39
2023/07/24 10:34:58;;;;;;;9.47;6.17;;;;;;;19.65;100.00;100131.22;7367785;19;20459;-49
2023/07/24 10:37:36;;;;;;;9.30;5.57;;;;;;;19.87;100.00;100124.97;7396873;19;20410;-39
2023/07/24 10:40:06;;;;;;;8.90;6.40;;;;;;;19.83;100.00;100138.09;7398630;19;20417;-39
2023/07/24 10:42:36;;;;;;;8.77;5.70;;;;;;;19.74;100.00;100135.53;7254527;19;2711657;-42
2023/07/24 10:45:12;;;;;;;9.73;6.90;;;;;;;19.80;100.00;100139.88;7368140;19;20731;-46
2023/07/24 10:47:42;;;;;;;8.30;5.60;;;;;;;19.71;100.00;100130.34;7391276;19;20406;-38
2023/07/24 10:50:15;;;;;;;10.30;6.13;;;;;;;19.67;100.00;100120.75;7369728;19;20974;-42
2023/07/24 10:52:44;;;;;;;10.40;6.97;;;;;;;19.97;100.00;100111.00;7394706;19;20414;-40
2023/07/24 10:55:14;;;;;;;8.23;6.60;;;;;;;20.21;100.00;100128.25;7368331;19;20423;-39
2023/07/24 10:57:43;;;;;;;6.87;5.10;;;;;;;20.25;100.00;100142.19;7395097;19;20761;-39
2023/07/24 11:00:17;;;;;;;10.33;6.03;;;;;;;20.00;100.00;100136.28;7368539;19;20391;-40
2023/07/24 11:02:47;;;;;;;8.27;5.60;;;;;;;19.80;100.00;100145.09;7389804;19;20958;-42
2023/07/24 11:05:16;;;;;;;8.33;6.30;;;;;;;19.71;100.00;100140.78;7363368;19;20827;-40
2023/07/24 11:07:46;;;;;;;7.47;5.80;;;;;;;19.84;100.00;100142.47;7387717;19;20415;-40
2023/07/24 11:10:19;;;;;;;7.67;5.83;;;;;;;20.13;100.00;100137.94;7361728;19;20765;-42
2023/07/24 11:12:50;;;;;;;11.10;6.97;;;;;;;20.39;100.00;100136.84;7388049;19;20491;-37
2023/07/24 11:15:27;;;;;;;9.80;5.97;;;;;;;20.35;100.00;100148.22;7362019;19;20407;-41
2023/07/24 11:17:56;;;;;;;10.00;6.43;;;;;;;20.53;100.00;100152.44;7390966;19;20394;-41
2023/07/24 11:20:26;;;;;;;8.20;5.67;;;;;;;20.68;100.00;100147.94;7363554;19;20471;-39
2023/07/24 11:22:56;;;;;;;12.37;6.00;;;;;;;20.72;100.00;100157.50;7388815;19;20380;-40
2023/07/24 11:25:25;;;;;;;7.07;4.97;;;;;;;20.52;100.00;100161.19;7359120;19;20429;-41
2023/07/24 11:27:55;;;;;;;8.93;6.30;;;;;;;20.74;100.00;100161.84;7389696;19;20387;-43
2023/07/24 11:30:27;;;;;;;8.43;5.00;;;;;;;20.91;100.00;100164.34;7364588;19;20489;-43
2023/07/24 11:32:59;;;;;;;7.90;4.90;;;;;;;20.63;100.00;100164.56;7388847;19;20399;-44
2023/07/24 11:35:28;;;;;;;7.70;5.10;;;;;;;20.56;100.00;100165.50;7365186;19;20423;-45
2023/07/24 11:37:58;;;;;;;6.57;4.17;;;;;;;20.76;100.00;100159.19;7389908;19;20799;-41